Time;durP1;ratioP1;P1;durP2;ratioP2;P2;SDS_P1;SDS_P2;PMS_P1;PMS_P2;Temp;Humidity;BMP_temperature;BMP_pressure;BME280_temperature;BME280_humidity;BME280_pressure;Samples;Min_cycle;Max_cycle;Signal;HPM_P1;HPM_P2
2022/04/16 00:02:25;;;;;;;;;13.40;13.40;;;;;;;;5250539;28;8816;-65
2022/04/16 00:04:57;;;;;;;;;15.60;14.60;;;;;;;;5234245;28;9540;-66
2022/04/16 00:08:06;;;;;;;;;19.20;19.20;;;;;;;;5236696;28;8824;-66
2022/04/16 00:10:39;;;;;;;;;7.00;6.60;;;;;;;;5267389;28;8773;-66
2022/04/16 00:13:11;;;;;;;;;7.00;7.00;;;;;;;;5250587;28;8805;-66
2022/04/16 00:15:43;;;;;;;;;7.60;7.00;;;;;;;;5246570;28;8843;-65
2022/04/16 00:18:16;;;;;;;;;6.20;6.20;;;;;;;;5238711;28;8873;-66
2022/04/16 00:20:55;;;;;;;;;22.60;22.60;;;;;;;;5248226;28;8763;-66
2022/04/16 00:23:26;;;;;;;;;15.40;15.40;;;;;;;;5213268;28;8859;-67
2022/04/16 00:25:58;;;;;;;;;7.60;7.60;;;;;;;;5213094;28;8778;-66
2022/04/16 00:28:29;;;;;;;;;24.20;23.00;;;;;;;;5229806;28;8794;-66
2022/04/16 00:31:20;;;;;;;;;13.60;13.40;;;;;;;;5215662;28;8847;-66
2022/04/16 00:33:52;;;;;;;;;2.20;2.20;;;;;;;;5249329;28;8787;-67
2022/04/16 00:36:23;;;;;;;;;18.25;17.50;;;;;;;;5249410;28;8795;-67
2022/04/16 00:38:54;;;;;;;;;20.40;18.40;;;;;;;;5265947;28;11523;-67
2022/04/16 00:41:26;;;;;;;;;8.00;8.00;;;;;;;;5233234;28;8787;-68
2022/04/16 00:43:58;;;;;;;;;19.20;17.00;;;;;;;;5232720;28;8817;-67
2022/04/16 00:46:48;;;;;;;;;19.20;19.20;;;;;;;;5268717;28;8758;-68
2022/04/16 00:49:19;;;;;;;;;38.40;34.20;;;;;;;;5233320;28;8778;-68
2022/04/16 00:51:51;;;;;;;;;20.20;20.00;;;;;;;;5216213;28;8782;-69
2022/04/16 00:54:41;;;;;;;;;91.00;79.75;;;;;;;;5252796;28;8763;-68
2022/04/16 00:57:13;;;;;;;;;12.40;12.40;;;;;;;;5266917;28;9537;-68
2022/04/16 00:59:45;;;;;;;;;1.00;1.00;;;;;;;;5267769;28;8908;-68
2022/04/16 01:02:38;;;;;;;;;8.40;8.40;;;;;;;;5248916;28;8820;-65
2022/04/16 01:05:12;;;;;;;;;7.20;7.20;;;;;;;;5249650;28;8773;-65
2022/04/16 01:08:04;;;;;;;;;7.00;7.00;;;;;;;;5235340;28;8909;-65
2022/04/16 01:10:35;;;;;;;;;24.40;22.20;;;;;;;;5232866;28;8786;-64
2022/04/16 01:13:07;;;;;;;;;13.00;13.00;;;;;;;;5249370;28;8790;-65
2022/04/16 01:15:39;;;;;;;;;1.40;1.40;;;;;;;;5249619;28;9505;-65
2022/04/16 01:18:12;;;;;;;;;5.20;5.20;;;;;;;;5266817;28;8834;-65
2022/04/16 01:20:44;;;;;;;;;2.80;2.80;;;;;;;;5267222;28;8893;-65
2022/04/16 01:23:15;;;;;;;;;3.60;3.60;;;;;;;;5267069;28;9528;-65
2022/04/16 01:26:04;;;;;;;;;5.20;5.20;;;;;;;;5267471;28;9470;-66
2022/04/16 01:28:35;;;;;;;;;0.50;0.50;;;;;;;;5232695;28;8798;-64
2022/04/16 01:31:07;;;;;;;;;24.00;24.00;;;;;;;;5248777;28;11395;-65
2022/04/16 01:33:38;;;;;;;;;15.20;15.20;;;;;;;;5248975;28;8774;-65
2022/04/16 01:36:09;;;;;;;;;7.60;7.60;;;;;;;;5248765;28;8787;-65
2022/04/16 01:38:40;;;;;;;;;19.60;18.20;;;;;;;;5265902;28;8953;-65
2022/04/16 01:41:11;;;;;;;;;5.20;4.40;;;;;;;;5266991;28;8817;-65
2022/04/16 01:44:01;;;;;;;;;14.20;13.40;;;;;;;;5266731;28;8786;-65
2022/04/16 01:46:32;;;;;;;;;2.80;2.80;;;;;;;;5249164;28;8770;-65
2022/04/16 01:49:22;;;;;;;;;13.80;13.80;;;;;;;;5234842;28;8782;-65
2022/04/16 01:51:55;;;;;;;;;23.20;20.40;;;;;;;;5235934;28;8797;-65
2022/04/16 01:54:26;;;;;;;;;105.25;79.75;;;;;;;;5270836;28;8770;-67
2022/04/16 01:57:18;;;;;;;;;149.33;115.00;;;;;;;;5239109;28;8755;-66
2022/04/16 01:59:50;;;;;;;;;100.50;72.25;;;;;;;;5235914;28;9436;-66
2022/04/16 02:02:21;;;;;;;;;16.80;16.80;;;;;;;;5236189;28;8822;-65
2022/04/16 02:04:52;;;;;;;;;5.60;5.60;;;;;;;;5236629;28;8824;-65
2022/04/16 02:07:23;;;;;;;;;1.20;1.20;;;;;;;;5271062;28;8786;-65
2022/04/16 02:09:55;;;;;;;;;1.20;1.20;;;;;;;;5236702;28;8778;-65
2022/04/16 02:12:26;;;;;;;;;2.00;2.00;;;;;;;;5253051;28;8801;-66
2022/04/16 02:14:58;;;;;;;;;0.40;0.40;;;;;;;;5270588;28;8791;-65
2022/04/16 02:17:32;;;;;;;;;1.00;1.00;;;;;;;;5236437;28;8856;-65
2022/04/16 02:20:08;;;;;;;;;4.00;4.00;;;;;;;;5236652;28;8774;-65
2022/04/16 02:22:39;;;;;;;;;1.60;1.60;;;;;;;;5236300;28;8917;-66
2022/04/16 02:25:31;;;;;;;;;0.60;0.60;;;;;;;;5238998;28;8790;-66
2022/04/16 02:28:03;;;;;;;;;13.80;13.80;;;;;;;;5270142;28;8893;-64
2022/04/16 02:30:52;;;;;;;;;2.20;2.20;;;;;;;;5270977;28;8770;-65
2022/04/16 02:33:23;;;;;;;;;3.25;3.00;;;;;;;;5252381;28;8794;-67
2022/04/16 02:35:54;;;;;;;;;2.00;2.00;;;;;;;;5252435;28;9565;-67
2022/04/16 02:38:25;;;;;;;;;9.40;9.00;;;;;;;;5252504;28;8890;-67
2022/04/16 02:40:56;;;;;;;;;5.80;5.80;;;;;;;;5252426;28;8766;-66
2022/04/16 02:43:27;;;;;;;;;7.00;6.50;;;;;;;;5233991;28;8810;-67
2022/04/16 02:48:48;;;;;;;;;20.20;20.20;;;;;;;;5270369;28;8794;-66
2022/04/16 02:51:38;;;;;;;;;10.80;10.60;;;;;;;;5270455;28;9539;-66
2022/04/16 02:54:28;;;;;;;;;13.00;13.00;;;;;;;;5254104;28;8805;-66
2022/04/16 02:56:59;;;;;;;;;10.00;8.80;;;;;;;;5251745;28;8851;-67
2022/04/16 02:59:35;;;;;;;;;11.80;10.40;;;;;;;;5247790;28;8811;-67
2022/04/16 03:02:06;;;;;;;;;11.00;11.00;;;;;;;;5231676;28;8807;-66
2022/04/16 03:04:38;;;;;;;;;7.40;7.40;;;;;;;;5264480;28;8783;-67
2022/04/16 03:07:09;;;;;;;;;4.00;4.00;;;;;;;;5247499;28;8831;-67
2022/04/16 03:09:41;;;;;;;;;6.60;6.60;;;;;;;;5230995;28;8799;-67
2022/04/16 03:12:12;;;;;;;;;4.40;4.40;;;;;;;;5230767;28;8799;-67
2022/04/16 03:17:35;;;;;;;;;1.20;1.20;;;;;;;;5247456;28;8943;-67
2022/04/16 03:20:09;;;;;;;;;2.00;2.00;;;;;;;;5247458;28;8809;-67
2022/04/16 03:22:42;;;;;;;;;1.20;1.20;;;;;;;;5247186;28;8807;-66
2022/04/16 03:25:14;;;;;;;;;7.00;7.00;;;;;;;;5230857;28;8809;-67
2022/04/16 03:27:45;;;;;;;;;5.40;5.40;;;;;;;;5247036;28;8779;-67
2022/04/16 03:30:36;;;;;;;;;7.20;7.20;;;;;;;;5226800;28;8790;-67
2022/04/16 03:33:08;;;;;;;;;9.40;9.40;;;;;;;;5210274;28;8824;-67
2022/04/16 03:35:40;;;;;;;;;1.40;1.40;;;;;;;;5244925;28;8817;-66
2022/04/16 03:38:11;;;;;;;;;1.20;1.20;;;;;;;;5247199;28;9518;-66
2022/04/16 03:40:44;;;;;;;;;10.80;10.80;;;;;;;;5230425;28;9517;-66
2022/04/16 03:43:18;;;;;;;;;10.20;10.20;;;;;;;;5246944;28;8799;-66
2022/04/16 03:45:50;;;;;;;;;9.00;9.00;;;;;;;;5227651;28;8770;-66
2022/04/16 03:48:21;;;;;;;;;1.00;1.00;;;;;;;;5226706;28;8882;-66
2022/04/16 03:50:53;;;;;;;;;6.60;6.60;;;;;;;;5213321;28;8853;-66
2022/04/16 03:53:25;;;;;;;;;5.00;5.00;;;;;;;;5230075;28;8793;-66
2022/04/16 04:01:36;;;;;;;;;11.60;11.60;;;;;;;;5250983;28;8849;-66
2022/04/16 04:04:10;;;;;;;;;11.60;11.60;;;;;;;;5234347;28;8805;-67
2022/04/16 04:06:41;;;;;;;;;16.60;15.60;;;;;;;;5249810;28;8895;-65
2022/04/16 04:09:12;;;;;;;;;10.20;10.20;;;;;;;;5234279;28;8782;-64
2022/04/16 04:11:45;;;;;;;;;8.40;8.40;;;;;;;;5270084;28;8786;-65
2022/04/16 04:14:16;;;;;;;;;12.80;12.00;;;;;;;;5267912;28;8783;-65
2022/04/16 04:16:49;;;;;;;;;4.00;4.00;;;;;;;;5233644;28;8802;-65
2022/04/16 04:19:21;;;;;;;;;4.60;4.60;;;;;;;;5250677;28;8783;-64
2022/04/16 04:22:12;;;;;;;;;2.00;2.00;;;;;;;;5250525;28;8923;-65
2022/04/16 04:24:45;;;;;;;;;2.00;2.00;;;;;;;;5251889;28;8799;-65
2022/04/16 04:27:17;;;;;;;;;1.00;1.00;;;;;;;;5255272;28;8810;-66
2022/04/16 04:29:48;;;;;;;;;4.60;4.60;;;;;;;;5250543;28;8821;-66
2022/04/16 04:32:20;;;;;;;;;4.20;4.20;;;;;;;;5233215;28;8835;-66
2022/04/16 04:34:51;;;;;;;;;2.80;2.80;;;;;;;;5234143;28;9663;-66
2022/04/16 04:37:23;;;;;;;;;2.00;2.00;;;;;;;;5233418;28;8767;-66
2022/04/16 04:39:55;;;;;;;;;4.00;4.00;;;;;;;;5267096;28;8789;-65
2022/04/16 04:42:27;;;;;;;;;3.20;3.20;;;;;;;;5249959;28;8833;-65
2022/04/16 04:44:58;;;;;;;;;17.80;17.80;;;;;;;;5244209;28;9586;-66
2022/04/16 04:47:30;;;;;;;;;3.00;3.00;;;;;;;;5228682;28;8801;-62
2022/04/16 04:50:19;;;;;;;;;9.20;9.20;;;;;;;;5266277;28;8841;-64
2022/04/16 04:52:52;;;;;;;;;12.80;12.80;;;;;;;;5249349;28;8798;-63
2022/04/16 04:55:24;;;;;;;;;10.00;10.00;;;;;;;;5243144;28;8802;-64
2022/04/16 04:57:55;;;;;;;;;7.00;6.80;;;;;;;;5227142;28;8774;-63
2022/04/16 05:00:26;;;;;;;;;0.40;0.40;;;;;;;;5226944;28;8802;-63
2022/04/16 05:02:57;;;;;;;;;10.20;10.20;;;;;;;;5210628;28;8820;-64
2022/04/16 05:05:29;;;;;;;;;1.40;1.40;;;;;;;;5231956;28;8798;-64
2022/04/16 05:08:00;;;;;;;;;4.00;4.00;;;;;;;;5247134;28;8795;-64
2022/04/16 05:10:31;;;;;;;;;10.00;9.25;;;;;;;;5231111;28;8795;-65
2022/04/16 05:13:07;;;;;;;;;1.00;1.00;;;;;;;;5265820;28;10547;-64
2022/04/16 05:15:38;;;;;;;;;4.60;4.60;;;;;;;;5266764;28;8762;-64
2022/04/16 05:18:09;;;;;;;;;6.00;6.00;;;;;;;;5214076;28;8820;-64
2022/04/16 05:20:41;;;;;;;;;6.00;6.00;;;;;;;;5230706;28;11098;-64
2022/04/16 05:23:13;;;;;;;;;6.00;6.00;;;;;;;;5230850;28;8841;-64
2022/04/16 05:25:44;;;;;;;;;5.40;5.40;;;;;;;;5247101;28;9497;-65
2022/04/16 05:28:15;;;;;;;;;7.40;7.40;;;;;;;;5247580;28;8794;-65
2022/04/16 05:30:54;;;;;;;;;28.00;26.80;;;;;;;;5263947;28;8806;-64
2022/04/16 05:36:15;;;;;;;;;12.80;12.80;;;;;;;;5246977;28;8810;-65
2022/04/16 05:38:46;;;;;;;;;26.00;23.75;;;;;;;;5265324;28;9306;-64
2022/04/16 05:41:17;;;;;;;;;15.20;15.20;;;;;;;;5265042;28;11417;-64
2022/04/16 05:43:48;;;;;;;;;7.20;7.20;;;;;;;;5262553;28;8819;-64
2022/04/16 05:46:20;;;;;;;;;61.40;46.80;;;;;;;;5241187;28;8885;-64
2022/04/16 05:48:51;;;;;;;;;27.40;25.60;;;;;;;;5261366;28;8829;-64
2022/04/16 05:51:22;;;;;;;;;48.25;39.75;;;;;;;;5246397;28;8796;-64
2022/04/16 05:53:53;;;;;;;;;84.40;66.40;;;;;;;;5249325;28;9470;-64
2022/04/16 05:56:24;;;;;;;;;9.80;9.00;;;;;;;;5232015;28;8782;-64
2022/04/16 05:58:55;;;;;;;;;12.20;11.80;;;;;;;;5266453;28;9521;-64
2022/04/16 06:01:26;;;;;;;;;24.20;23.00;;;;;;;;5264591;28;8802;-64
2022/04/16 06:03:57;;;;;;;;;10.20;9.40;;;;;;;;5265934;28;8822;-64
2022/04/16 06:06:28;;;;;;;;;20.75;20.00;;;;;;;;5248817;28;8958;-64
2022/04/16 06:08:59;;;;;;;;;5.75;5.25;;;;;;;;5248230;28;11605;-64
2022/04/16 06:11:32;;;;;;;;;11.40;10.60;;;;;;;;5248562;28;11502;-64
2022/04/16 06:14:03;;;;;;;;;27.20;26.20;;;;;;;;5266705;28;9477;-64
2022/04/16 06:16:34;;;;;;;;;7.25;6.75;;;;;;;;5231969;28;8774;-64
2022/04/16 06:19:05;;;;;;;;;58.60;49.60;;;;;;;;5248702;28;12127;-64
2022/04/16 06:21:54;;;;;;;;;20.60;20.60;;;;;;;;5266500;28;8809;-64
2022/04/16 06:24:25;;;;;;;;;41.40;35.20;;;;;;;;5248484;28;9726;-64
2022/04/16 06:26:56;;;;;;;;;105.00;92.00;;;;;;;;5248287;28;8909;-64
2022/04/16 06:29:27;;;;;;;;;15.40;15.20;;;;;;;;5248603;28;10621;-64
2022/04/16 06:31:58;;;;;;;;;65.20;55.00;;;;;;;;5248859;28;8775;-64
2022/04/16 06:34:30;;;;;;;;;13.60;13.60;;;;;;;;5248629;28;8792;-64
2022/04/16 06:37:01;;;;;;;;;3.00;3.00;;;;;;;;5249829;28;8829;-64
2022/04/16 06:39:32;;;;;;;;;9.80;9.80;;;;;;;;5270142;28;8803;-64
2022/04/16 06:42:21;;;;;;;;;6.60;6.60;;;;;;;;5270647;28;8829;-64
2022/04/16 06:44:53;;;;;;;;;6.00;6.00;;;;;;;;5269473;28;8793;-64
2022/04/16 06:47:24;;;;;;;;;16.00;14.20;;;;;;;;5252059;28;8782;-64
2022/04/16 06:49:55;;;;;;;;;12.20;11.40;;;;;;;;5251847;28;8767;-64
2022/04/16 06:52:45;;;;;;;;;9.20;9.20;;;;;;;;5237956;28;8797;-64
2022/04/16 06:55:16;;;;;;;;;11.40;11.40;;;;;;;;5252008;28;8797;-64
2022/04/16 06:57:47;;;;;;;;;32.80;32.40;;;;;;;;5235474;28;8789;-64
2022/04/16 07:00:18;;;;;;;;;24.75;24.75;;;;;;;;5268790;28;8802;-64
2022/04/16 07:02:49;;;;;;;;;5.00;3.40;;;;;;;;5251568;28;11485;-64
2022/04/16 07:05:20;;;;;;;;;11.40;11.40;;;;;;;;5251935;28;8783;-64
2022/04/16 07:07:52;;;;;;;;;23.20;22.40;;;;;;;;5251967;28;8823;-64
2022/04/16 07:10:23;;;;;;;;;30.50;29.25;;;;;;;;5251572;28;8873;-64
2022/04/16 07:12:54;;;;;;;;;1.75;1.75;;;;;;;;5234774;28;8841;-64
2022/04/16 07:15:25;;;;;;;;;5.00;5.00;;;;;;;;5234893;28;11366;-65
2022/04/16 07:17:55;;;;;;;;;2.00;2.00;;;;;;;;5268497;28;11367;-65
2022/04/16 07:20:26;;;;;;;;;6.50;6.50;;;;;;;;5222720;28;8785;-65
2022/04/16 07:22:57;;;;;;;;;6.75;6.75;;;;;;;;5246441;28;9219;-65
2022/04/16 07:25:28;;;;;;;;;3.00;3.00;;;;;;;;5248733;28;11339;-65
2022/04/16 07:27:59;;;;;;;;;17.50;17.50;;;;;;;;5234741;28;8850;-65
2022/04/16 07:30:30;;;;;;;;;20.20;19.80;;;;;;;;5256866;28;8794;-64
2022/04/16 07:33:19;;;;;;;;;10.00;10.00;;;;;;;;5274837;28;9631;-64
2022/04/16 07:36:09;;;;;;;;;10.20;10.20;;;;;;;;5276201;28;8812;-64
2022/04/16 07:38:43;;;;;;;;;12.80;12.00;;;;;;;;5275291;28;8775;-65
2022/04/16 07:41:14;;;;;;;;;8.40;8.40;;;;;;;;5240815;28;8826;-64
2022/04/16 07:43:44;;;;;;;;;13.00;13.00;;;;;;;;5247750;28;9576;-64
2022/04/16 07:46:18;;;;;;;;;5.75;5.00;;;;;;;;5237117;28;8825;-64
2022/04/16 07:48:49;;;;;;;;;11.20;10.40;;;;;;;;5233480;28;11660;-64
2022/04/16 07:51:20;;;;;;;;;6.00;6.00;;;;;;;;5268599;28;8794;-64
2022/04/16 07:53:55;;;;;;;;;6.20;6.20;;;;;;;;5234382;28;8815;-64
2022/04/16 07:56:27;;;;;;;;;7.00;7.00;;;;;;;;5268954;28;8798;-64
2022/04/16 07:58:58;;;;;;;;;11.20;11.20;;;;;;;;5249987;28;8930;-64
2022/04/16 08:01:28;;;;;;;;;8.00;8.00;;;;;;;;5269112;28;8917;-64
2022/04/16 08:03:59;;;;;;;;;5.25;5.25;;;;;;;;5268592;28;8822;-64
2022/04/16 08:06:30;;;;;;;;;14.00;14.00;;;;;;;;5250524;28;11781;-64
2022/04/16 08:09:20;;;;;;;;;11.00;10.40;;;;;;;;5250530;28;11492;-64
2022/04/16 08:11:51;;;;;;;;;20.50;20.00;;;;;;;;5225806;28;8790;-64
2022/04/16 08:14:21;;;;;;;;;13.40;13.40;;;;;;;;5249845;28;11595;-65
2022/04/16 08:16:52;;;;;;;;;11.75;11.75;;;;;;;;5250526;28;8901;-64
2022/04/16 08:19:23;;;;;;;;;16.75;16.50;;;;;;;;5250225;28;8790;-65
2022/04/16 08:21:54;;;;;;;;;1.00;1.00;;;;;;;;5268147;28;8786;-64
2022/04/16 08:26:59;;;;;;;;;15.60;13.20;;;;;;;;5268383;28;8766;-64
2022/04/16 08:29:30;;;;;;;;;7.75;7.00;;;;;;;;5249767;28;8779;-63
2022/04/16 08:32:19;;;;;;;;;10.80;10.40;;;;;;;;5253309;28;11410;-64
2022/04/16 08:34:50;;;;;;;;;6.75;6.75;;;;;;;;5250078;28;8801;-64
2022/04/16 08:37:21;;;;;;;;;1.00;1.00;;;;;;;;5250051;28;8877;-64
2022/04/16 08:39:51;;;;;;;;;11.75;11.50;;;;;;;;5266462;28;8821;-64
2022/04/16 08:42:23;;;;;;;;;34.75;30.00;;;;;;;;5249664;28;8814;-64
2022/04/16 08:44:54;;;;;;;;;13.60;13.60;;;;;;;;5248857;28;8908;-64
2022/04/16 08:47:24;;;;;;;;;3.40;3.40;;;;;;;;5268252;28;8957;-64
2022/04/16 08:49:56;;;;;;;;;6.00;4.50;;;;;;;;5267820;28;9480;-64
2022/04/16 08:52:29;;;;;;;;;56.60;48.20;;;;;;;;5249560;28;8778;-65
2022/04/16 08:55:18;;;;;;;;;40.80;38.00;;;;;;;;5267967;28;8766;-64
2022/04/16 08:58:07;;;;;;;;;23.60;22.80;;;;;;;;5252072;28;9564;-64
2022/04/16 09:00:38;;;;;;;;;16.00;16.00;;;;;;;;5248959;28;8806;-64
2022/04/16 09:03:09;;;;;;;;;7.25;7.25;;;;;;;;5267627;28;8860;-63
2022/04/16 09:05:40;;;;;;;;;18.60;18.20;;;;;;;;5216460;28;8823;-63
2022/04/16 09:08:11;;;;;;;;;8.20;8.20;;;;;;;;5267624;28;8941;-63
2022/04/16 09:10:44;;;;;;;;;0.50;0.50;;;;;;;;5249084;28;8794;-63
2022/04/16 09:13:20;;;;;;;;;10.00;10.00;;;;;;;;5249225;28;8786;-63
2022/04/16 09:16:01;;;;;;;;;10.00;9.00;;;;;;;;5267410;28;9514;-63
2022/04/16 09:18:44;;;;;;;;;14.20;14.00;;;;;;;;5233030;28;8782;-63
2022/04/16 09:21:15;;;;;;;;;6.40;6.40;;;;;;;;5249956;28;8763;-62
2022/04/16 09:23:47;;;;;;;;;6.00;6.00;;;;;;;;5248138;28;8810;-63
2022/04/16 09:26:37;;;;;;;;;22.00;21.60;;;;;;;;5247130;28;8848;-63
2022/04/16 09:29:12;;;;;;;;;18.80;17.80;;;;;;;;5267038;28;8909;-62
2022/04/16 09:31:45;;;;;;;;;16.80;14.40;;;;;;;;5232514;28;8893;-63
2022/04/16 09:34:17;;;;;;;;;39.40;38.00;;;;;;;;5249492;28;8770;-62
2022/04/16 09:36:49;;;;;;;;;12.60;12.20;;;;;;;;5266655;28;8774;-63
2022/04/16 09:39:24;;;;;;;;;22.20;18.00;;;;;;;;5267281;28;8870;-62
2022/04/16 09:42:23;;;;;;;;;9.40;9.40;;;;;;;;5249032;28;8890;-62
2022/04/16 09:44:54;;;;;;;;;11.60;11.00;;;;;;;;5248497;28;8774;-62
2022/04/16 09:47:28;;;;;;;;;13.80;12.20;;;;;;;;5248967;28;8790;-63
2022/04/16 09:49:59;;;;;;;;;6.00;6.00;;;;;;;;5266779;28;8809;-61
2022/04/16 09:52:31;;;;;;;;;12.60;11.80;;;;;;;;5266886;28;8789;-63
2022/04/16 09:55:02;;;;;;;;;6.80;6.80;;;;;;;;5266285;28;8826;-64
2022/04/16 09:57:35;;;;;;;;;13.40;13.20;;;;;;;;5265228;28;8790;-64
2022/04/16 10:00:07;;;;;;;;;8.80;8.80;;;;;;;;5244064;28;8841;-63
2022/04/16 10:02:43;;;;;;;;;9.40;8.40;;;;;;;;5245089;28;8826;-63
2022/04/16 10:05:14;;;;;;;;;8.00;7.40;;;;;;;;5228292;28;8794;-64
2022/04/16 10:07:48;;;;;;;;;8.40;8.40;;;;;;;;5244705;28;8909;-64
2022/04/16 10:10:30;;;;;;;;;6.80;6.80;;;;;;;;5211802;28;8930;-63
2022/04/16 10:13:07;;;;;;;;;27.60;27.60;;;;;;;;5230897;28;9579;-64
2022/04/16 10:16:02;;;;;;;;;10.80;10.80;;;;;;;;5249942;28;8775;-64
2022/04/16 10:18:35;;;;;;;;;5.80;5.80;;;;;;;;5249678;28;9539;-65
2022/04/16 10:21:13;;;;;;;;;9.40;9.40;;;;;;;;5231376;28;8814;-64
2022/04/16 10:23:44;;;;;;;;;6.60;6.60;;;;;;;;5248721;28;8868;-64
2022/04/16 10:26:16;;;;;;;;;5.50;5.50;;;;;;;;5265470;28;8779;-64
2022/04/16 10:28:54;;;;;;;;;13.00;12.60;;;;;;;;5231480;28;10817;-64
2022/04/16 10:31:28;;;;;;;;;57.40;44.60;;;;;;;;5249932;28;8793;-64
2022/04/16 10:34:09;;;;;;;;;74.20;57.20;;;;;;;;5248319;28;8794;-64
2022/04/16 10:36:59;;;;;;;;;122.80;87.40;;;;;;;;5227761;28;8777;-65
2022/04/16 10:39:31;;;;;;;;;15.75;15.75;;;;;;;;5226416;28;8809;-65
2022/04/16 10:42:03;;;;;;;;;10.00;10.00;;;;;;;;5209409;28;11533;-66
2022/04/16 10:44:47;;;;;;;;;9.20;9.20;;;;;;;;5224896;28;8826;-66
2022/04/16 10:47:18;;;;;;;;;17.40;15.60;;;;;;;;5213031;28;9557;-66
2022/04/16 10:50:18;;;;;;;;;8.20;8.20;;;;;;;;5246403;28;8905;-65
2022/04/16 10:53:00;;;;;;;;;27.60;25.20;;;;;;;;5245940;28;8787;-66
2022/04/16 10:55:31;;;;;;;;;19.00;18.40;;;;;;;;5229463;28;8787;-66
2022/04/16 10:58:27;;;;;;;;;19.40;19.40;;;;;;;;5246250;28;8803;-65
2022/04/16 11:01:06;;;;;;;;;14.80;14.60;;;;;;;;5245811;28;8814;-67
2022/04/16 11:03:47;;;;;;;;;17.80;16.80;;;;;;;;5228747;28;9570;-67
2022/04/16 11:06:36;;;;;;;;;22.80;21.80;;;;;;;;5245998;28;8779;-67
2022/04/16 11:09:07;;;;;;;;;14.50;14.50;;;;;;;;5245953;28;9556;-67
2022/04/16 11:11:41;;;;;;;;;1.00;1.00;;;;;;;;5228964;28;9594;-67
2022/04/16 11:14:31;;;;;;;;;8.80;8.80;;;;;;;;5239114;28;8888;-68
2022/04/16 11:17:03;;;;;;;;;59.20;46.40;;;;;;;;5226156;28;8798;-68
2022/04/16 11:20:02;;;;;;;;;29.00;28.80;;;;;;;;5210798;28;8817;-68
2022/04/16 11:22:34;;;;;;;;;20.20;20.20;;;;;;;;5224767;28;9022;-68
2022/04/16 11:25:06;;;;;;;;;2.20;2.20;;;;;;;;5224692;28;8871;-69
2022/04/16 11:36:09;;;;;;;;;21.80;21.60;;;;;;;;5242974;28;8810;-68
2022/04/16 11:38:41;;;;;;;;;20.20;20.20;;;;;;;;5247829;28;8854;-68
2022/04/16 11:41:13;;;;;;;;;8.00;8.00;;;;;;;;5230347;28;8816;-68
2022/04/16 11:43:47;;;;;;;;;12.60;12.60;;;;;;;;5229326;28;9562;-68
2022/04/16 11:46:18;;;;;;;;;14.60;14.60;;;;;;;;5242159;28;8801;-68
2022/04/16 11:48:50;;;;;;;;;23.40;23.00;;;;;;;;5192956;28;8816;-68
2022/04/16 11:51:21;;;;;;;;;20.20;20.20;;;;;;;;5192862;28;8798;-68
2022/04/16 11:53:52;;;;;;;;;23.60;23.60;;;;;;;;5225910;28;8817;-68
2022/04/16 11:56:49;;;;;;;;;14.40;14.40;;;;;;;;5226554;28;8812;-67
2022/04/16 11:59:24;;;;;;;;;18.80;18.60;;;;;;;;5229770;28;8807;-67
2022/04/16 12:02:10;;;;;;;;;57.40;48.60;;;;;;;;5229780;28;8791;-68
2022/04/16 12:04:41;;;;;;;;;25.00;25.00;;;;;;;;5229185;28;8833;-68
2022/04/16 12:07:14;;;;;;;;;33.20;32.40;;;;;;;;5247830;28;8811;-68
2022/04/16 12:09:48;;;;;;;;;15.60;15.60;;;;;;;;5241708;28;8812;-68
2022/04/16 12:12:23;;;;;;;;;11.60;11.60;;;;;;;;5226785;28;8832;-68
2022/04/16 12:15:12;;;;;;;;;8.60;8.60;;;;;;;;5227321;28;8847;-68
2022/04/16 12:17:43;;;;;;;;;11.00;10.60;;;;;;;;5228090;28;8896;-69
2022/04/16 12:20:32;;;;;;;;;12.20;11.40;;;;;;;;5247528;28;9513;-68
2022/04/16 12:23:05;;;;;;;;;5.00;5.00;;;;;;;;5229248;28;8811;-68
2022/04/16 12:26:11;;;;;;;;;9.80;9.40;;;;;;;;5246245;28;8774;-68
2022/04/16 12:28:51;;;;;;;;;11.00;10.20;;;;;;;;5262748;28;8803;-68
2022/04/16 12:31:29;;;;;;;;;10.80;9.20;;;;;;;;5246522;28;8908;-67
2022/04/16 12:34:01;;;;;;;;;9.80;9.20;;;;;;;;5228686;28;8819;-66
2022/04/16 12:36:32;;;;;;;;;6.40;6.40;;;;;;;;5245781;28;8921;-66
2022/04/16 12:39:03;;;;;;;;;66.33;55.00;;;;;;;;5245266;28;8945;-66
2022/04/16 12:41:38;;;;;;;;;3.40;3.40;;;;;;;;5245749;28;8787;-66
2022/04/16 12:44:09;;;;;;;;;25.20;24.80;;;;;;;;5244924;28;8819;-66
2022/04/16 12:46:58;;;;;;;;;10.00;10.00;;;;;;;;5246108;28;8938;-66
2022/04/16 12:49:29;;;;;;;;;12.75;12.75;;;;;;;;5246756;28;8929;-66
2022/04/16 12:52:00;;;;;;;;;13.75;12.25;;;;;;;;5229042;28;8791;-66
2022/04/16 12:54:30;;;;;;;;;3.00;3.00;;;;;;;;5240733;28;11516;-67
2022/04/16 12:57:02;;;;;;;;;17.00;16.80;;;;;;;;5208176;28;8793;-66
2022/04/16 12:59:32;;;;;;;;;22.80;20.80;;;;;;;;5241110;28;8870;-68
2022/04/16 13:02:22;;;;;;;;;9.00;9.00;;;;;;;;5246405;28;8787;-68
2022/04/16 13:04:54;;;;;;;;;13.50;12.50;;;;;;;;5228629;28;8837;-66
2022/04/16 13:07:25;;;;;;;;;14.60;14.60;;;;;;;;5228648;28;11454;-66
2022/04/16 13:10:14;;;;;;;;;9.20;9.20;;;;;;;;5245444;28;8805;-66
2022/04/16 13:12:46;;;;;;;;;15.20;14.60;;;;;;;;5228262;28;8803;-66
2022/04/16 13:15:17;;;;;;;;;10.00;10.00;;;;;;;;5228472;28;8803;-66
2022/04/16 13:17:47;;;;;;;;;17.60;17.60;;;;;;;;5245980;28;11557;-66
2022/04/16 13:20:18;;;;;;;;;12.00;12.00;;;;;;;;5245508;28;8783;-66
2022/04/16 13:22:49;;;;;;;;;16.00;15.00;;;;;;;;5246158;28;8826;-67
2022/04/16 13:25:24;;;;;;;;;6.00;6.00;;;;;;;;5244957;28;9545;-67
2022/04/16 13:28:14;;;;;;;;;19.60;16.60;;;;;;;;5230413;28;8814;-68
2022/04/16 13:30:48;;;;;;;;;14.00;14.00;;;;;;;;5245451;28;8779;-67
2022/04/16 13:33:19;;;;;;;;;10.00;9.40;;;;;;;;5245914;28;8795;-68
2022/04/16 13:35:50;;;;;;;;;7.80;7.80;;;;;;;;5244594;28;8822;-67
2022/04/16 13:38:21;;;;;;;;;13.00;12.00;;;;;;;;5228278;28;9498;-67
2022/04/16 13:43:43;;;;;;;;;19.20;19.00;;;;;;;;5244505;28;11452;-67
2022/04/16 13:46:17;;;;;;;;;17.40;17.20;;;;;;;;5246852;28;8814;-68
2022/04/16 13:48:48;;;;;;;;;23.60;22.00;;;;;;;;5249087;28;8815;-68
2022/04/16 13:51:19;;;;;;;;;20.00;20.00;;;;;;;;5248926;28;8779;-66
2022/04/16 13:53:50;;;;;;;;;10.75;10.75;;;;;;;;5249781;28;11582;-67
2022/04/16 13:56:21;;;;;;;;;6.20;6.20;;;;;;;;5243584;28;9621;-67
2022/04/16 13:58:52;;;;;;;;;7.40;7.40;;;;;;;;5248053;28;8802;-66
2022/04/16 14:01:23;;;;;;;;;6.40;6.40;;;;;;;;5260583;28;8839;-66
2022/04/16 14:03:54;;;;;;;;;10.40;10.40;;;;;;;;5250393;28;8826;-65
2022/04/16 14:06:25;;;;;;;;;35.50;34.25;;;;;;;;5236199;28;8794;-66
2022/04/16 14:08:56;;;;;;;;;23.00;22.00;;;;;;;;5236423;28;9002;-66
2022/04/16 14:11:28;;;;;;;;;15.40;15.00;;;;;;;;5252386;28;9606;-65
2022/04/16 14:13:59;;;;;;;;;16.00;15.00;;;;;;;;5236349;28;8758;-65
2022/04/16 14:16:30;;;;;;;;;16.60;16.60;;;;;;;;5252816;28;8785;-65
2022/04/16 14:19:19;;;;;;;;;21.20;19.80;;;;;;;;5252564;28;8778;-65
2022/04/16 14:21:55;;;;;;;;;23.60;21.60;;;;;;;;5234120;28;10871;-66
2022/04/16 14:24:26;;;;;;;;;12.80;11.60;;;;;;;;5252318;28;8810;-66
2022/04/16 14:26:57;;;;;;;;;8.25;8.00;;;;;;;;5235761;28;8851;-66
2022/04/16 14:29:29;;;;;;;;;19.50;18.75;;;;;;;;5251972;28;9713;-66
2022/04/16 14:32:01;;;;;;;;;17.20;16.40;;;;;;;;5252257;28;12197;-66
2022/04/16 14:34:31;;;;;;;;;18.80;18.80;;;;;;;;5235551;28;9616;-66
2022/04/16 14:37:02;;;;;;;;;21.00;18.50;;;;;;;;5270362;28;8908;-66
2022/04/16 14:39:34;;;;;;;;;18.80;18.80;;;;;;;;5249150;28;10047;-66
2022/04/16 14:42:06;;;;;;;;;21.40;20.60;;;;;;;;5250981;28;8859;-66
2022/04/16 14:44:40;;;;;;;;;21.40;20.60;;;;;;;;5268014;28;8818;-66
2022/04/16 14:47:11;;;;;;;;;25.80;25.20;;;;;;;;5235049;28;8861;-65
2022/04/16 14:49:42;;;;;;;;;36.75;35.25;;;;;;;;5251550;28;8786;-66
2022/04/16 14:52:13;;;;;;;;;13.50;12.25;;;;;;;;5251964;28;8810;-66
2022/04/16 14:54:43;;;;;;;;;17.75;16.00;;;;;;;;5251868;28;12213;-66
2022/04/16 14:57:14;;;;;;;;;10.80;10.20;;;;;;;;5268702;28;8819;-67
2022/04/16 14:59:45;;;;;;;;;25.25;24.00;;;;;;;;5247315;28;8819;-67
2022/04/16 15:02:16;;;;;;;;;14.25;13.00;;;;;;;;5247755;28;8799;-66
2022/04/16 15:04:51;;;;;;;;;3.00;3.00;;;;;;;;5231220;28;8795;-67
2022/04/16 15:07:22;;;;;;;;;19.60;19.60;;;;;;;;5230488;28;11595;-67
2022/04/16 15:10:11;;;;;;;;;21.40;21.00;;;;;;;;5247742;28;8799;-68
2022/04/16 15:12:42;;;;;;;;;30.80;30.80;;;;;;;;5246999;28;8830;-66
2022/04/16 15:15:13;;;;;;;;;47.00;37.50;;;;;;;;5247381;28;8876;-66
2022/04/16 15:17:45;;;;;;;;;13.00;13.00;;;;;;;;5247171;28;8809;-65
2022/04/16 15:20:38;;;;;;;;;10.60;10.60;;;;;;;;5246804;28;8799;-65
2022/04/16 15:23:08;;;;;;;;;19.60;18.40;;;;;;;;5246697;28;8818;-66
2022/04/16 15:25:46;;;;;;;;;27.00;23.25;;;;;;;;5246751;28;8799;-66
2022/04/16 15:28:17;;;;;;;;;21.20;20.00;;;;;;;;5246866;28;8903;-66
2022/04/16 15:30:48;;;;;;;;;29.20;28.80;;;;;;;;5246396;28;8795;-65
2022/04/16 15:33:19;;;;;;;;;32.00;28.20;;;;;;;;5247300;28;8813;-66
2022/04/16 15:35:50;;;;;;;;;23.50;23.00;;;;;;;;5227463;28;8834;-66
2022/04/16 15:38:22;;;;;;;;;10.20;10.20;;;;;;;;5211976;28;8786;-66
2022/04/16 15:41:11;;;;;;;;;26.60;25.20;;;;;;;;5244717;28;8783;-66
2022/04/16 15:43:42;;;;;;;;;34.25;32.25;;;;;;;;5243588;28;9723;-66
2022/04/16 15:46:13;;;;;;;;;56.50;44.75;;;;;;;;5245899;28;8896;-66
2022/04/16 15:48:44;;;;;;;;;30.75;30.50;;;;;;;;5244446;28;8833;-66
2022/04/16 15:51:15;;;;;;;;;23.60;23.00;;;;;;;;5228471;28;8925;-67